sensor_id;sensor_type;location;lat;lon;timestamp;temperature;humidity
8420;DHT22;4247;48.550;8.822;2023-04-12T00:00:52;9.00;99.90
8420;DHT22;4247;48.550;8.822;2023-04-12T00:03:19;9.00;99.90
8420;DHT22;4247;48.550;8.822;2023-04-12T00:05:46;9.00;99.90
8420;DHT22;4247;48.550;8.822;2023-04-12T00:08:13;9.00;99.90
8420;DHT22;4247;48.550;8.822;2023-04-12T00:10:40;8.90;99.90
8420;DHT22;4247;48.550;8.822;2023-04-12T00:13:10;8.90;99.90
8420;DHT22;4247;48.550;8.822;2023-04-12T00:15:37;8.90;99.90
8420;DHT22;4247;48.550;8.822;2023-04-12T00:18:03;8.90;99.90
8420;DHT22;4247;48.550;8.822;2023-04-12T00:20:30;8.80;99.90
8420;DHT22;4247;48.550;8.822;2023-04-12T00:22:57;8.90;99.90
8420;DHT22;4247;48.550;8.822;2023-04-12T00:25:24;8.90;99.90
8420;DHT22;4247;48.550;8.822;2023-04-12T00:27:51;8.80;99.90
8420;DHT22;4247;48.550;8.822;2023-04-12T00:30:19;8.80;99.90
8420;DHT22;4247;48.550;8.822;2023-04-12T00:32:45;8.80;99.90
8420;DHT22;4247;48.550;8.822;2023-04-12T00:35:12;8.80;99.90
8420;DHT22;4247;48.550;8.822;2023-04-12T00:37:39;8.80;99.90
8420;DHT22;4247;48.550;8.822;2023-04-12T00:40:07;8.80;99.90
8420;DHT22;4247;48.550;8.822;2023-04-12T00:42:35;8.80;99.90
8420;DHT22;4247;48.550;8.822;2023-04-12T00:45:02;8.80;99.90
8420;DHT22;4247;48.550;8.822;2023-04-12T00:47:30;8.70;99.90
8420;DHT22;4247;48.550;8.822;2023-04-12T00:49:58;8.70;99.90
8420;DHT22;4247;48.550;8.822;2023-04-12T00:52:25;8.70;99.90
8420;DHT22;4247;48.550;8.822;2023-04-12T00:54:52;8.80;99.90
8420;DHT22;4247;48.550;8.822;2023-04-12T00:57:19;8.70;99.90
8420;DHT22;4247;48.550;8.822;2023-04-12T00:59:46;8.70;99.90
8420;DHT22;4247;48.550;8.822;2023-04-12T01:02:13;8.70;99.90
8420;DHT22;4247;48.550;8.822;2023-04-12T01:04:43;8.70;99.90
8420;DHT22;4247;48.550;8.822;2023-04-12T01:07:24;8.70;99.90
8420;DHT22;4247;48.550;8.822;2023-04-12T01:10:03;8.70;99.90
8420;DHT22;4247;48.550;8.822;2023-04-12T01:12:42;8.70;99.90
8420;DHT22;4247;48.550;8.822;2023-04-12T01:15:13;8.70;99.90
8420;DHT22;4247;48.550;8.822;2023-04-12T01:17:46;8.70;99.90
8420;DHT22;4247;48.550;8.822;2023-04-12T01:20:18;8.70;99.90
8420;DHT22;4247;48.550;8.822;2023-04-12T01:25:56;8.70;99.90
8420;DHT22;4247;48.550;8.822;2023-04-12T01:28:33;8.70;99.90
8420;DHT22;4247;48.550;8.822;2023-04-12T01:31:01;8.70;99.90
8420;DHT22;4247;48.550;8.822;2023-04-12T01:33:29;8.70;99.90
8420;DHT22;4247;48.550;8.822;2023-04-12T01:35:58;8.60;99.90
8420;DHT22;4247;48.550;8.822;2023-04-12T01:38:25;8.60;99.90
8420;DHT22;4247;48.550;8.822;2023-04-12T01:40:53;8.60;99.90
8420;DHT22;4247;48.550;8.822;2023-04-12T01:43:19;8.60;99.90
8420;DHT22;4247;48.550;8.822;2023-04-12T01:45:48;8.60;99.90
8420;DHT22;4247;48.550;8.822;2023-04-12T01:48:14;8.60;99.90
8420;DHT22;4247;48.550;8.822;2023-04-12T01:50:47;8.60;99.90
8420;DHT22;4247;48.550;8.822;2023-04-12T01:53:18;8.60;99.90
8420;DHT22;4247;48.550;8.822;2023-04-12T01:55:47;8.60;99.90
8420;DHT22;4247;48.550;8.822;2023-04-12T01:58:18;8.60;99.90
8420;DHT22;4247;48.550;8.822;2023-04-12T02:00:48;8.60;99.90
8420;DHT22;4247;48.550;8.822;2023-04-12T02:03:15;8.60;99.90
8420;DHT22;4247;48.550;8.822;2023-04-12T02:05:42;8.50;99.90
8420;DHT22;4247;48.550;8.822;2023-04-12T02:08:10;8.50;99.90
8420;DHT22;4247;48.550;8.822;2023-04-12T02:10:37;8.50;99.90
8420;DHT22;4247;48.550;8.822;2023-04-12T02:13:05;8.50;99.90
8420;DHT22;4247;48.550;8.822;2023-04-12T02:15:32;8.50;99.90
8420;DHT22;4247;48.550;8.822;2023-04-12T02:18:00;8.50;99.90
8420;DHT22;4247;48.550;8.822;2023-04-12T02:20:27;8.50;99.90
8420;DHT22;4247;48.550;8.822;2023-04-12T02:22:54;8.40;99.90
8420;DHT22;4247;48.550;8.822;2023-04-12T02:25:21;8.50;99.90
8420;DHT22;4247;48.550;8.822;2023-04-12T02:27:47;8.40;99.90
8420;DHT22;4247;48.550;8.822;2023-04-12T02:30:14;8.40;99.90
8420;DHT22;4247;48.550;8.822;2023-04-12T02:32:41;8.50;99.90
8420;DHT22;4247;48.550;8.822;2023-04-12T02:35:13;8.40;99.90
8420;DHT22;4247;48.550;8.822;2023-04-12T02:37:43;8.40;99.90
8420;DHT22;4247;48.550;8.822;2023-04-12T02:40:11;8.40;99.90
8420;DHT22;4247;48.550;8.822;2023-04-12T02:42:40;8.40;99.90
8420;DHT22;4247;48.550;8.822;2023-04-12T02:45:07;8.40;99.90
8420;DHT22;4247;48.550;8.822;2023-04-12T02:47:34;8.40;99.90
8420;DHT22;4247;48.550;8.822;2023-04-12T02:50:02;8.50;99.90
8420;DHT22;4247;48.550;8.822;2023-04-12T02:52:31;8.40;99.90
8420;DHT22;4247;48.550;8.822;2023-04-12T02:54:58;8.50;99.90
8420;DHT22;4247;48.550;8.822;2023-04-12T02:57:25;8.40;99.90
8420;DHT22;4247;48.550;8.822;2023-04-12T02:59:52;8.40;99.90
8420;DHT22;4247;48.550;8.822;2023-04-12T03:02:18;8.50;99.90
8420;DHT22;4247;48.550;8.822;2023-04-12T03:04:45;8.50;99.90
8420;DHT22;4247;48.550;8.822;2023-04-12T03:07:15;8.50;99.90
8420;DHT22;4247;48.550;8.822;2023-04-12T03:09:44;8.50;99.90
8420;DHT22;4247;48.550;8.822;2023-04-12T03:12:10;8.50;99.90
8420;DHT22;4247;48.550;8.822;2023-04-12T03:14:37;8.50;99.90
8420;DHT22;4247;48.550;8.822;2023-04-12T03:17:04;8.40;99.90
8420;DHT22;4247;48.550;8.822;2023-04-12T03:19:30;8.50;99.90
8420;DHT22;4247;48.550;8.822;2023-04-12T03:21:59;8.40;99.90
8420;DHT22;4247;48.550;8.822;2023-04-12T03:24:26;8.40;99.90
8420;DHT22;4247;48.550;8.822;2023-04-12T03:26:54;8.40;99.90
8420;DHT22;4247;48.550;8.822;2023-04-12T03:29:22;8.50;99.90
8420;DHT22;4247;48.550;8.822;2023-04-12T03:31:49;8.50;99.90
8420;DHT22;4247;48.550;8.822;2023-04-12T03:34:15;8.50;99.90
8420;DHT22;4247;48.550;8.822;2023-04-12T03:36:42;8.40;99.90
8420;DHT22;4247;48.550;8.822;2023-04-12T03:39:09;8.50;99.90
8420;DHT22;4247;48.550;8.822;2023-04-12T03:41:36;8.50;99.90
8420;DHT22;4247;48.550;8.822;2023-04-12T03:44:04;8.50;99.90
8420;DHT22;4247;48.550;8.822;2023-04-12T03:46:32;8.50;99.90
8420;DHT22;4247;48.550;8.822;2023-04-12T03:48:59;8.50;99.90
8420;DHT22;4247;48.550;8.822;2023-04-12T03:51:25;8.40;99.90
8420;DHT22;4247;48.550;8.822;2023-04-12T03:53:54;8.50;99.90
8420;DHT22;4247;48.550;8.822;2023-04-12T03:56:21;8.40;99.90
8420;DHT22;4247;48.550;8.822;2023-04-12T03:58:48;8.40;99.90
8420;DHT22;4247;48.550;8.822;2023-04-12T04:01:16;8.40;99.90
8420;DHT22;4247;48.550;8.822;2023-04-12T04:03:43;8.40;99.90
8420;DHT22;4247;48.550;8.822;2023-04-12T04:06:10;8.40;99.90
8420;DHT22;4247;48.550;8.822;2023-04-12T04:08:37;8.40;99.90
8420;DHT22;4247;48.550;8.822;2023-04-12T04:11:04;8.40;99.90
8420;DHT22;4247;48.550;8.822;2023-04-12T04:13:31;8.40;99.90
8420;DHT22;4247;48.550;8.822;2023-04-12T04:16:01;8.40;99.90
8420;DHT22;4247;48.550;8.822;2023-04-12T04:18:30;8.40;99.90
8420;DHT22;4247;48.550;8.822;2023-04-12T04:20:57;8.40;99.90
8420;DHT22;4247;48.550;8.822;2023-04-12T04:23:24;8.40;99.90
8420;DHT22;4247;48.550;8.822;2023-04-12T04:25:53;8.40;99.90
8420;DHT22;4247;48.550;8.822;2023-04-12T04:28:20;8.40;99.90
8420;DHT22;4247;48.550;8.822;2023-04-12T04:30:46;8.40;99.90
8420;DHT22;4247;48.550;8.822;2023-04-12T04:33:15;8.30;99.90
8420;DHT22;4247;48.550;8.822;2023-04-12T04:35:45;8.40;99.90
8420;DHT22;4247;48.550;8.822;2023-04-12T04:38:11;8.30;99.90
8420;DHT22;4247;48.550;8.822;2023-04-12T04:40:40;8.30;99.90
8420;DHT22;4247;48.550;8.822;2023-04-12T04:43:06;8.30;99.90
8420;DHT22;4247;48.550;8.822;2023-04-12T04:45:34;8.30;99.90
8420;DHT22;4247;48.550;8.822;2023-04-12T04:48:00;8.20;99.90
8420;DHT22;4247;48.550;8.822;2023-04-12T04:50:27;8.20;99.90
8420;DHT22;4247;48.550;8.822;2023-04-12T04:52:56;8.20;99.90
8420;DHT22;4247;48.550;8.822;2023-04-12T04:55:23;8.30;99.90
8420;DHT22;4247;48.550;8.822;2023-04-12T04:57:50;8.30;99.90
8420;DHT22;4247;48.550;8.822;2023-04-12T05:00:17;8.30;99.90
8420;DHT22;4247;48.550;8.822;2023-04-12T05:02:44;8.20;99.90
8420;DHT22;4247;48.550;8.822;2023-04-12T05:05:11;8.30;99.90
8420;DHT22;4247;48.550;8.822;2023-04-12T05:07:38;8.30;99.90
8420;DHT22;4247;48.550;8.822;2023-04-12T05:10:08;8.40;99.90
8420;DHT22;4247;48.550;8.822;2023-04-12T05:12:34;8.40;99.90
8420;DHT22;4247;48.550;8.822;2023-04-12T05:15:01;8.40;99.90
8420;DHT22;4247;48.550;8.822;2023-04-12T05:17:28;8.40;99.90
8420;DHT22;4247;48.550;8.822;2023-04-12T05:19:56;8.30;99.90
8420;DHT22;4247;48.550;8.822;2023-04-12T05:22:23;8.30;99.90
8420;DHT22;4247;48.550;8.822;2023-04-12T05:24:50;8.40;99.90
8420;DHT22;4247;48.550;8.822;2023-04-12T05:27:18;8.40;99.90
8420;DHT22;4247;48.550;8.822;2023-04-12T05:29:44;8.40;99.90
8420;DHT22;4247;48.550;8.822;2023-04-12T05:32:11;8.40;99.90
8420;DHT22;4247;48.550;8.822;2023-04-12T05:34:38;8.30;99.90
8420;DHT22;4247;48.550;8.822;2023-04-12T05:37:04;8.30;99.90
8420;DHT22;4247;48.550;8.822;2023-04-12T05:39:32;8.30;99.90
8420;DHT22;4247;48.550;8.822;2023-04-12T05:41:59;8.40;99.90
8420;DHT22;4247;48.550;8.822;2023-04-12T05:44:27;8.40;99.90
8420;DHT22;4247;48.550;8.822;2023-04-12T05:46:54;8.40;99.90
8420;DHT22;4247;48.550;8.822;2023-04-12T05:49:21;8.40;99.90
8420;DHT22;4247;48.550;8.822;2023-04-12T05:51:47;8.40;99.90
8420;DHT22;4247;48.550;8.822;2023-04-12T05:54:14;8.40;99.90
8420;DHT22;4247;48.550;8.822;2023-04-12T05:56:45;8.40;99.90
8420;DHT22;4247;48.550;8.822;2023-04-12T05:59:12;8.40;99.90
8420;DHT22;4247;48.550;8.822;2023-04-12T06:01:40;8.40;99.90
8420;DHT22;4247;48.550;8.822;2023-04-12T06:04:09;8.40;99.90
8420;DHT22;4247;48.550;8.822;2023-04-12T06:06:35;8.50;99.90
8420;DHT22;4247;48.550;8.822;2023-04-12T06:09:02;8.60;99.90
8420;DHT22;4247;48.550;8.822;2023-04-12T06:11:29;8.60;99.90
8420;DHT22;4247;48.550;8.822;2023-04-12T06:13:58;8.60;99.90
8420;DHT22;4247;48.550;8.822;2023-04-12T06:16:24;8.70;99.90
8420;DHT22;4247;48.550;8.822;2023-04-12T06:18:52;8.60;99.90
8420;DHT22;4247;48.550;8.822;2023-04-12T06:21:19;8.70;99.90
8420;DHT22;4247;48.550;8.822;2023-04-12T06:23:46;8.80;99.90
8420;DHT22;4247;48.550;8.822;2023-04-12T06:26:12;8.80;99.90
8420;DHT22;4247;48.550;8.822;2023-04-12T06:28:39;8.80;99.90
8420;DHT22;4247;48.550;8.822;2023-04-12T06:31:06;8.80;99.90
8420;DHT22;4247;48.550;8.822;2023-04-12T06:33:33;8.90;99.90
8420;DHT22;4247;48.550;8.822;2023-04-12T06:36:02;8.90;99.90
8420;DHT22;4247;48.550;8.822;2023-04-12T06:38:29;9.00;99.90
8420;DHT22;4247;48.550;8.822;2023-04-12T06:40:56;9.10;99.90
8420;DHT22;4247;48.550;8.822;2023-04-12T06:43:22;9.10;99.90
8420;DHT22;4247;48.550;8.822;2023-04-12T06:45:49;9.10;99.90
8420;DHT22;4247;48.550;8.822;2023-04-12T06:48:16;9.20;99.90
8420;DHT22;4247;48.550;8.822;2023-04-12T06:50:43;9.20;99.90
8420;DHT22;4247;48.550;8.822;2023-04-12T06:53:11;9.20;99.90
8420;DHT22;4247;48.550;8.822;2023-04-12T06:55:38;9.30;99.90
8420;DHT22;4247;48.550;8.822;2023-04-12T06:58:05;9.40;99.90
8420;DHT22;4247;48.550;8.822;2023-04-12T07:00:32;9.40;99.90
8420;DHT22;4247;48.550;8.822;2023-04-12T07:02:59;9.60;99.90
8420;DHT22;4247;48.550;8.822;2023-04-12T07:05:25;9.60;99.90
8420;DHT22;4247;48.550;8.822;2023-04-12T07:07:52;9.60;99.90
8420;DHT22;4247;48.550;8.822;2023-04-12T07:10:20;9.70;99.90
8420;DHT22;4247;48.550;8.822;2023-04-12T07:12:47;9.70;99.90
8420;DHT22;4247;48.550;8.822;2023-04-12T07:15:14;9.70;99.90
8420;DHT22;4247;48.550;8.822;2023-04-12T07:17:41;9.80;99.90
8420;DHT22;4247;48.550;8.822;2023-04-12T07:20:08;9.90;99.90
8420;DHT22;4247;48.550;8.822;2023-04-12T07:22:35;10.00;99.90
8420;DHT22;4247;48.550;8.822;2023-04-12T07:25:03;10.00;99.90
8420;DHT22;4247;48.550;8.822;2023-04-12T07:27:35;10.20;99.90
8420;DHT22;4247;48.550;8.822;2023-04-12T07:30:02;10.30;99.90
8420;DHT22;4247;48.550;8.822;2023-04-12T07:32:29;10.30;99.90
8420;DHT22;4247;48.550;8.822;2023-04-12T07:34:56;10.40;99.90
8420;DHT22;4247;48.550;8.822;2023-04-12T07:37:23;10.40;99.90
8420;DHT22;4247;48.550;8.822;2023-04-12T07:39:49;10.60;99.90
8420;DHT22;4247;48.550;8.822;2023-04-12T07:42:17;10.70;99.90
8420;DHT22;4247;48.550;8.822;2023-04-12T07:44:45;10.80;99.90
8420;DHT22;4247;48.550;8.822;2023-04-12T07:47:12;10.80;99.90
8420;DHT22;4247;48.550;8.822;2023-04-12T07:49:38;10.80;99.90
8420;DHT22;4247;48.550;8.822;2023-04-12T07:52:05;10.80;99.90
8420;DHT22;4247;48.550;8.822;2023-04-12T07:54:32;10.90;99.90
8420;DHT22;4247;48.550;8.822;2023-04-12T07:56:59;10.90;99.90
8420;DHT22;4247;48.550;8.822;2023-04-12T07:59:26;11.00;99.90
8420;DHT22;4247;48.550;8.822;2023-04-12T08:01:54;11.00;99.90
8420;DHT22;4247;48.550;8.822;2023-04-12T08:04:21;11.00;99.90
8420;DHT22;4247;48.550;8.822;2023-04-12T08:06:48;11.00;99.90
8420;DHT22;4247;48.550;8.822;2023-04-12T08:09:15;11.00;99.90
8420;DHT22;4247;48.550;8.822;2023-04-12T08:11:42;11.10;99.90
8420;DHT22;4247;48.550;8.822;2023-04-12T08:14:08;11.10;99.90
8420;DHT22;4247;48.550;8.822;2023-04-12T08:16:35;11.10;99.90
8420;DHT22;4247;48.550;8.822;2023-04-12T08:19:04;11.10;99.90
8420;DHT22;4247;48.550;8.822;2023-04-12T08:21:30;11.10;99.90
8420;DHT22;4247;48.550;8.822;2023-04-12T08:23:58;11.20;99.90
8420;DHT22;4247;48.550;8.822;2023-04-12T08:26:24;11.20;99.90
8420;DHT22;4247;48.550;8.822;2023-04-12T08:28:54;11.20;99.90
8420;DHT22;4247;48.550;8.822;2023-04-12T08:31:22;11.40;99.90
8420;DHT22;4247;48.550;8.822;2023-04-12T08:33:48;11.50;99.90
8420;DHT22;4247;48.550;8.822;2023-04-12T08:36:17;11.50;99.90
8420;DHT22;4247;48.550;8.822;2023-04-12T08:38:43;11.50;99.90
8420;DHT22;4247;48.550;8.822;2023-04-12T08:41:11;11.60;99.90
8420;DHT22;4247;48.550;8.822;2023-04-12T08:43:42;11.60;99.90
8420;DHT22;4247;48.550;8.822;2023-04-12T08:46:10;11.60;99.90
8420;DHT22;4247;48.550;8.822;2023-04-12T08:48:40;11.70;99.90
8420;DHT22;4247;48.550;8.822;2023-04-12T08:51:10;11.70;99.90
8420;DHT22;4247;48.550;8.822;2023-04-12T08:53:39;11.80;99.90
8420;DHT22;4247;48.550;8.822;2023-04-12T08:56:08;11.80;99.90
8420;DHT22;4247;48.550;8.822;2023-04-12T08:58:37;11.90;99.90
8420;DHT22;4247;48.550;8.822;2023-04-12T09:01:09;11.80;99.90
8420;DHT22;4247;48.550;8.822;2023-04-12T09:03:37;11.90;99.90
8420;DHT22;4247;48.550;8.822;2023-04-12T09:06:05;11.90;99.90
8420;DHT22;4247;48.550;8.822;2023-04-12T09:08:32;11.90;99.90
8420;DHT22;4247;48.550;8.822;2023-04-12T09:11:01;11.90;99.90
8420;DHT22;4247;48.550;8.822;2023-04-12T09:13:31;11.90;99.90
8420;DHT22;4247;48.550;8.822;2023-04-12T09:15:59;12.00;99.90
8420;DHT22;4247;48.550;8.822;2023-04-12T09:18:26;12.10;99.90
8420;DHT22;4247;48.550;8.822;2023-04-12T09:21:05;12.00;99.90
8420;DHT22;4247;48.550;8.822;2023-04-12T09:23:32;12.00;99.90
8420;DHT22;4247;48.550;8.822;2023-04-12T09:26:02;12.00;99.90
8420;DHT22;4247;48.550;8.822;2023-04-12T09:28:29;12.00;99.90
8420;DHT22;4247;48.550;8.822;2023-04-12T09:30:57;12.00;99.90
8420;DHT22;4247;48.550;8.822;2023-04-12T09:33:32;12.00;99.90
8420;DHT22;4247;48.550;8.822;2023-04-12T09:36:00;12.00;99.90
8420;DHT22;4247;48.550;8.822;2023-04-12T09:38:28;12.10;99.90
8420;DHT22;4247;48.550;8.822;2023-04-12T09:40:55;12.10;99.90
8420;DHT22;4247;48.550;8.822;2023-04-12T09:43:36;12.10;99.90
8420;DHT22;4247;48.550;8.822;2023-04-12T09:46:09;12.10;99.90
8420;DHT22;4247;48.550;8.822;2023-04-12T09:48:37;12.10;99.90
8420;DHT22;4247;48.550;8.822;2023-04-12T09:51:04;12.10;99.90
8420;DHT22;4247;48.550;8.822;2023-04-12T09:53:33;12.30;99.90
8420;DHT22;4247;48.550;8.822;2023-04-12T09:56:01;12.50;99.90
8420;DHT22;4247;48.550;8.822;2023-04-12T09:58:30;12.60;99.90
8420;DHT22;4247;48.550;8.822;2023-04-12T10:01:00;12.60;99.90
8420;DHT22;4247;48.550;8.822;2023-04-12T10:03:28;12.70;99.90
8420;DHT22;4247;48.550;8.822;2023-04-12T10:05:55;12.60;99.90
8420;DHT22;4247;48.550;8.822;2023-04-12T10:08:22;12.70;99.90
8420;DHT22;4247;48.550;8.822;2023-04-12T10:10:49;12.80;99.90
8420;DHT22;4247;48.550;8.822;2023-04-12T10:13:16;12.80;99.90
8420;DHT22;4247;48.550;8.822;2023-04-12T10:15:44;12.90;99.90
8420;DHT22;4247;48.550;8.822;2023-04-12T10:18:15;13.00;99.90
8420;DHT22;4247;48.550;8.822;2023-04-12T10:20:44;13.00;99.90
8420;DHT22;4247;48.550;8.822;2023-04-12T10:23:11;13.10;99.90
8420;DHT22;4247;48.550;8.822;2023-04-12T10:25:39;13.00;99.90
8420;DHT22;4247;48.550;8.822;2023-04-12T10:28:13;13.00;99.90
8420;DHT22;4247;48.550;8.822;2023-04-12T10:30:41;13.20;99.90
8420;DHT22;4247;48.550;8.822;2023-04-12T10:33:16;13.20;99.90
8420;DHT22;4247;48.550;8.822;2023-04-12T10:35:52;13.40;99.90
8420;DHT22;4247;48.550;8.822;2023-04-12T10:38:19;13.50;99.90
8420;DHT22;4247;48.550;8.822;2023-04-12T10:43:50;13.70;99.90
8420;DHT22;4247;48.550;8.822;2023-04-12T10:46:48;13.60;99.90
8420;DHT22;4247;48.550;8.822;2023-04-12T10:49:17;13.80;99.90
8420;DHT22;4247;48.550;8.822;2023-04-12T10:52:12;13.80;99.90
8420;DHT22;4247;48.550;8.822;2023-04-12T10:54:42;13.90;99.90
8420;DHT22;4247;48.550;8.822;2023-04-12T10:57:43;13.80;99.90
8420;DHT22;4247;48.550;8.822;2023-04-12T11:00:13;13.80;99.90
8420;DHT22;4247;48.550;8.822;2023-04-12T11:03:06;13.90;99.90
8420;DHT22;4247;48.550;8.822;2023-04-12T11:06:00;13.90;99.90
8420;DHT22;4247;48.550;8.822;2023-04-12T11:08:28;13.80;99.90
8420;DHT22;4247;48.550;8.822;2023-04-12T11:11:02;13.80;99.90
8420;DHT22;4247;48.550;8.822;2023-04-12T11:13:33;13.80;99.90
8420;DHT22;4247;48.550;8.822;2023-04-12T11:16:01;13.90;99.90
8420;DHT22;4247;48.550;8.822;2023-04-12T11:18:28;13.90;99.90
8420;DHT22;4247;48.550;8.822;2023-04-12T11:20:56;13.90;99.90
8420;DHT22;4247;48.550;8.822;2023-04-12T11:23:24;13.90;99.90
8420;DHT22;4247;48.550;8.822;2023-04-12T11:25:52;13.90;99.90
8420;DHT22;4247;48.550;8.822;2023-04-12T11:28:19;13.90;99.90
8420;DHT22;4247;48.550;8.822;2023-04-12T11:30:50;14.00;99.90
8420;DHT22;4247;48.550;8.822;2023-04-12T11:33:31;14.10;99.90
8420;DHT22;4247;48.550;8.822;2023-04-12T11:35:58;14.10;99.90
8420;DHT22;4247;48.550;8.822;2023-04-12T11:38:26;14.10;99.90
8420;DHT22;4247;48.550;8.822;2023-04-12T11:40:53;14.00;99.90
8420;DHT22;4247;48.550;8.822;2023-04-12T11:43:23;14.10;99.90
8420;DHT22;4247;48.550;8.822;2023-04-12T11:45:55;14.10;99.90
8420;DHT22;4247;48.550;8.822;2023-04-12T11:48:21;14.20;99.90
8420;DHT22;4247;48.550;8.822;2023-04-12T11:50:48;14.10;99.90
8420;DHT22;4247;48.550;8.822;2023-04-12T11:53:15;14.10;99.90
8420;DHT22;4247;48.550;8.822;2023-04-12T11:55:48;14.10;99.90
8420;DHT22;4247;48.550;8.822;2023-04-12T11:58:16;14.20;99.90
8420;DHT22;4247;48.550;8.822;2023-04-12T12:00:43;14.30;99.90
8420;DHT22;4247;48.550;8.822;2023-04-12T12:03:11;14.30;99.90
8420;DHT22;4247;48.550;8.822;2023-04-12T12:05:38;14.30;99.90
8420;DHT22;4247;48.550;8.822;2023-04-12T12:08:06;14.30;99.90
8420;DHT22;4247;48.550;8.822;2023-04-12T12:10:33;14.20;99.90
8420;DHT22;4247;48.550;8.822;2023-04-12T12:13:01;14.30;99.90
8420;DHT22;4247;48.550;8.822;2023-04-12T12:15:29;14.30;99.90
8420;DHT22;4247;48.550;8.822;2023-04-12T12:17:56;14.30;99.90
8420;DHT22;4247;48.550;8.822;2023-04-12T12:20:23;14.50;99.90
8420;DHT22;4247;48.550;8.822;2023-04-12T12:22:51;14.60;99.90
8420;DHT22;4247;48.550;8.822;2023-04-12T12:25:18;14.70;99.90
8420;DHT22;4247;48.550;8.822;2023-04-12T12:27:45;14.60;99.90
8420;DHT22;4247;48.550;8.822;2023-04-12T12:30:17;14.50;99.90
8420;DHT22;4247;48.550;8.822;2023-04-12T12:32:44;14.30;99.90
8420;DHT22;4247;48.550;8.822;2023-04-12T12:35:12;14.20;99.90
8420;DHT22;4247;48.550;8.822;2023-04-12T12:37:47;14.40;99.90
8420;DHT22;4247;48.550;8.822;2023-04-12T12:40:14;14.30;99.90
8420;DHT22;4247;48.550;8.822;2023-04-12T12:42:45;14.30;99.90
8420;DHT22;4247;48.550;8.822;2023-04-12T12:45:13;14.30;99.90
8420;DHT22;4247;48.550;8.822;2023-04-12T12:47:52;14.40;99.90
8420;DHT22;4247;48.550;8.822;2023-04-12T12:50:22;14.70;99.90
8420;DHT22;4247;48.550;8.822;2023-04-12T12:52:49;14.80;99.90
8420;DHT22;4247;48.550;8.822;2023-04-12T12:55:16;14.90;99.90
8420;DHT22;4247;48.550;8.822;2023-04-12T12:57:44;14.90;99.90
8420;DHT22;4247;48.550;8.822;2023-04-12T13:00:12;15.00;99.90
8420;DHT22;4247;48.550;8.822;2023-04-12T13:02:39;15.00;99.90
8420;DHT22;4247;48.550;8.822;2023-04-12T13:05:08;14.90;99.90
8420;DHT22;4247;48.550;8.822;2023-04-12T13:07:36;14.90;99.90
8420;DHT22;4247;48.550;8.822;2023-04-12T13:10:03;14.90;99.90
8420;DHT22;4247;48.550;8.822;2023-04-12T13:12:30;14.90;99.90
8420;DHT22;4247;48.550;8.822;2023-04-12T13:14:57;14.80;99.90
8420;DHT22;4247;48.550;8.822;2023-04-12T13:17:25;14.80;99.90
8420;DHT22;4247;48.550;8.822;2023-04-12T13:19:51;14.80;99.90
8420;DHT22;4247;48.550;8.822;2023-04-12T13:22:20;14.70;99.90
8420;DHT22;4247;48.550;8.822;2023-04-12T13:24:47;14.60;99.90
8420;DHT22;4247;48.550;8.822;2023-04-12T13:27:13;14.70;99.90
8420;DHT22;4247;48.550;8.822;2023-04-12T13:29:40;14.70;99.90
8420;DHT22;4247;48.550;8.822;2023-04-12T13:32:07;14.70;99.90
8420;DHT22;4247;48.550;8.822;2023-04-12T13:34:34;14.70;99.90
8420;DHT22;4247;48.550;8.822;2023-04-12T13:37:01;14.70;99.90
8420;DHT22;4247;48.550;8.822;2023-04-12T13:39:29;14.70;99.90
8420;DHT22;4247;48.550;8.822;2023-04-12T13:41:56;14.60;99.90
8420;DHT22;4247;48.550;8.822;2023-04-12T13:44:23;14.60;99.90
8420;DHT22;4247;48.550;8.822;2023-04-12T13:46:51;14.60;99.90
8420;DHT22;4247;48.550;8.822;2023-04-12T13:49:18;14.80;99.90
8420;DHT22;4247;48.550;8.822;2023-04-12T13:51:45;14.90;99.90
8420;DHT22;4247;48.550;8.822;2023-04-12T13:54:12;14.90;99.90
8420;DHT22;4247;48.550;8.822;2023-04-12T13:56:41;14.90;99.90
8420;DHT22;4247;48.550;8.822;2023-04-12T13:59:07;14.80;99.90
8420;DHT22;4247;48.550;8.822;2023-04-12T14:01:34;14.80;99.90
8420;DHT22;4247;48.550;8.822;2023-04-12T14:04:01;14.90;99.90
8420;DHT22;4247;48.550;8.822;2023-04-12T14:06:28;14.90;99.90
8420;DHT22;4247;48.550;8.822;2023-04-12T14:08:56;15.00;99.90
8420;DHT22;4247;48.550;8.822;2023-04-12T14:11:23;14.90;99.90
8420;DHT22;4247;48.550;8.822;2023-04-12T14:13:51;14.90;99.90
8420;DHT22;4247;48.550;8.822;2023-04-12T14:16:18;14.90;99.90
8420;DHT22;4247;48.550;8.822;2023-04-12T14:18:45;14.90;99.90
8420;DHT22;4247;48.550;8.822;2023-04-12T14:21:12;14.80;99.90
8420;DHT22;4247;48.550;8.822;2023-04-12T14:23:38;14.80;99.90
8420;DHT22;4247;48.550;8.822;2023-04-12T14:26:06;14.80;99.90
8420;DHT22;4247;48.550;8.822;2023-04-12T14:28:33;14.80;99.90
8420;DHT22;4247;48.550;8.822;2023-04-12T14:31:01;14.80;99.90
8420;DHT22;4247;48.550;8.822;2023-04-12T14:33:28;14.70;99.90
8420;DHT22;4247;48.550;8.822;2023-04-12T14:35:55;14.70;99.90
8420;DHT22;4247;48.550;8.822;2023-04-12T14:38:22;14.70;99.90
8420;DHT22;4247;48.550;8.822;2023-04-12T14:40:49;14.70;99.90
8420;DHT22;4247;48.550;8.822;2023-04-12T14:43:16;14.60;99.90
8420;DHT22;4247;48.550;8.822;2023-04-12T14:45:43;14.60;99.90
8420;DHT22;4247;48.550;8.822;2023-04-12T14:48:11;14.60;99.90
8420;DHT22;4247;48.550;8.822;2023-04-12T14:50:37;14.60;99.90
8420;DHT22;4247;48.550;8.822;2023-04-12T14:53:04;14.60;99.90
8420;DHT22;4247;48.550;8.822;2023-04-12T14:55:34;14.60;99.90
8420;DHT22;4247;48.550;8.822;2023-04-12T14:58:00;14.60;99.90
8420;DHT22;4247;48.550;8.822;2023-04-12T15:00:27;14.40;99.90
8420;DHT22;4247;48.550;8.822;2023-04-12T15:02:54;14.40;99.90
8420;DHT22;4247;48.550;8.822;2023-04-12T15:05:23;14.20;99.90
8420;DHT22;4247;48.550;8.822;2023-04-12T15:07:49;13.90;99.90
8420;DHT22;4247;48.550;8.822;2023-04-12T15:10:16;13.40;99.90
8420;DHT22;4247;48.550;8.822;2023-04-12T15:12:45;13.00;99.90
8420;DHT22;4247;48.550;8.822;2023-04-12T15:15:11;12.70;99.90
8420;DHT22;4247;48.550;8.822;2023-04-12T15:17:38;12.50;99.90
8420;DHT22;4247;48.550;8.822;2023-04-12T15:20:06;12.30;99.90
8420;DHT22;4247;48.550;8.822;2023-04-12T15:22:39;12.20;99.90
8420;DHT22;4247;48.550;8.822;2023-04-12T15:25:07;12.00;99.90
8420;DHT22;4247;48.550;8.822;2023-04-12T15:27:34;11.80;99.90
8420;DHT22;4247;48.550;8.822;2023-04-12T15:30:02;11.70;99.90
8420;DHT22;4247;48.550;8.822;2023-04-12T15:32:33;11.60;99.90
8420;DHT22;4247;48.550;8.822;2023-04-12T15:35:03;11.70;99.90
8420;DHT22;4247;48.550;8.822;2023-04-12T15:37:31;11.60;99.90
8420;DHT22;4247;48.550;8.822;2023-04-12T15:40:00;11.60;99.90
8420;DHT22;4247;48.550;8.822;2023-04-12T15:42:28;11.60;99.90
8420;DHT22;4247;48.550;8.822;2023-04-12T15:44:54;11.70;99.90
8420;DHT22;4247;48.550;8.822;2023-04-12T15:47:21;11.70;99.90
8420;DHT22;4247;48.550;8.822;2023-04-12T15:49:48;11.70;99.90
8420;DHT22;4247;48.550;8.822;2023-04-12T15:52:14;11.70;99.90
8420;DHT22;4247;48.550;8.822;2023-04-12T15:54:41;11.60;99.90
8420;DHT22;4247;48.550;8.822;2023-04-12T15:57:10;11.70;99.90
8420;DHT22;4247;48.550;8.822;2023-04-12T15:59:39;11.70;99.90
8420;DHT22;4247;48.550;8.822;2023-04-12T16:02:06;11.60;99.90
8420;DHT22;4247;48.550;8.822;2023-04-12T16:04:34;11.60;99.90
8420;DHT22;4247;48.550;8.822;2023-04-12T16:07:01;11.60;99.90
8420;DHT22;4247;48.550;8.822;2023-04-12T16:09:28;11.60;99.90
8420;DHT22;4247;48.550;8.822;2023-04-12T16:11:56;11.60;99.90
8420;DHT22;4247;48.550;8.822;2023-04-12T16:14:25;11.50;99.90
8420;DHT22;4247;48.550;8.822;2023-04-12T16:16:51;11.50;99.90
8420;DHT22;4247;48.550;8.822;2023-04-12T16:19:18;11.50;99.90
8420;DHT22;4247;48.550;8.822;2023-04-12T16:21:45;11.50;99.90